Terminal Aerodrome Forecast
Issued by NWS

Home | Current Version | Previous Version | Text Only | Print | Product List | Glossary Off
Versions: 1 2 3 4 5 6 7 8 9 10 11 12 13 14 15 16 17 18 19 20

000
FTUS43 KFGF 151139
TAFBJI
TAF
KBJI 151139Z 1512/1612 35004KT P6SM -SN OVC014
     FM151400 VRB03KT P6SM OVC070
     FM152000 VRB03KT P6SM OVC030
     FM160000 12005KT 2SM -SN OVC015
     FM160700 12007KT 2SM -SN OVC015=

USA.gov is the U.S. government's official web portal to all federal, state and local government web resources and services.